This is the latest recevied weather packets stored in our database for station/object KB4KY. If no packets are shown the sender has not sent any weather packets the latest 10 day(s).
| Time | Temp. | Humidity | Pressure | Rain* | Wind** | Luminosity | Snow |
|---|---|---|---|---|---|---|---|
| 1778115255 | 14.44° C | 67% | 1013.1 hPa | 0 mm | - | - | - |
| 1778114955 | 14.44° C | 67% | 1013 hPa | 0 mm | - | - | - |
| 1778114654 | 14.44° C | 67% | 1012.8 hPa | 0 mm | - | - | - |
| 1778114354 | 14.44° C | 68% | 1013 hPa | 0 mm | - | - | - |
| 1778114054 | 14.44° C | 67% | 1013.1 hPa | 0 mm | - | - | - |
| 1778113766 | 15° C | 65% | 1012.9 hPa | 0 mm | - | - | - |
| 1778113755 | 14.44° C | 68% | 1013.2 hPa | 0 mm | - | - | - |
| 1778113453 | 14.44° C | 66% | 1012.9 hPa | 0 mm | - | - | - |
| 1778113342 | 15° C | 65% | 1012.9 hPa | 0 mm | - | - | - |
| 1778113153 | 14.44° C | 67% | 1013.1 hPa | 0 mm | - | - | - |
| 1778112852 | 14.44° C | 66% | 1013 hPa | 0 mm | - | - | - |
| 1778112552 | 15° C | 65% | 1012.9 hPa | 0 mm | - | - | - |
| 1778112252 | 15° C | 65% | 1012.9 hPa | 0 mm | - | - | - |
| 1778111951 | 15° C | 64% | 1012.9 hPa | 0 mm | - | - | - |
| 1778111653 | 15° C | 64% | 1012.7 hPa | 0 mm | - | - | - |
| 1778111386 | 15° C | 64% | 1012.6 hPa | 0 mm | - | - | - |
| 1778111352 | 15° C | 64% | 1012.6 hPa | 0 mm | - | - | - |
| 1778111092 | 15° C | 64% | 1012.4 hPa | 0 mm | - | - | - |
| 1778111052 | 15° C | 64% | 1012.4 hPa | 0 mm | - | - | - |
| 1778110752 | 15° C | 63% | 1012.2 hPa | 0 mm | - | - | - |
| 1778110450 | 15° C | 63% | 1012.4 hPa | 0 mm | - | - | - |
| 1778110223 | 15° C | 63% | 1012.6 hPa | 0 mm | - | - | - |
| 1778110150 | 15° C | 64% | 1012.5 hPa | 0 mm | - | - | - |
| 1778109851 | 15° C | 63% | 1012.6 hPa | 0 mm | - | - | - |
| 1778109549 | 15° C | 63% | 1012.7 hPa | 0 mm | - | - | - |
* Rain latest hour (hover to see other rain measurements)
** Current wind speed in m/s (hover to see current wind gust speed)